Time;durP1;ratioP1;P1;durP2;ratioP2;P2;SDS_P1;SDS_P2;PMS_P1;PMS_P2;Temp;Humidity;BMP_temperature;BMP_pressure;BME280_temperature;BME280_humidity;BME280_pressure;Samples;Min_cycle;Max_cycle;Signal;HPM_P1;HPM_P2
2022/09/25 00:01:40;;;;;;;13.50;5.07;;;-18.80;99.90;;;;;;5080086;28;20231;-76
2022/09/25 00:04:06;;;;;;;17.40;5.10;;;-19.10;99.90;;;;;;5074999;28;20174;-71
2022/09/25 00:06:32;;;;;;;13.50;4.23;;;-22.90;99.90;;;;;;5075008;28;20300;-71
2022/09/25 00:09:00;;;;;;;7.97;3.63;;;-21.30;99.90;;;;;;5079143;28;20471;-74
2022/09/25 00:11:29;;;;;;;16.13;4.33;;;-21.40;99.90;;;;;;5081419;28;20251;-71
2022/09/25 00:13:57;;;;;;;9.13;4.63;;;-19.90;99.90;;;;;;5081278;28;20503;-73
2022/09/25 00:16:26;;;;;;;8.33;4.60;;;-20.60;99.90;;;;;;5081325;28;20180;-76
2022/09/25 00:21:37;;;;;;;9.30;4.30;;;-20.70;99.90;;;;;;5075106;28;20223;-74
2022/09/25 00:24:09;;;;;;;11.33;4.97;;;-21.00;99.90;;;;;;5080838;28;20518;-69
2022/09/25 00:26:38;;;;;;;7.30;3.27;;;-19.20;99.90;;;;;;5080640;28;20182;-71
2022/09/25 00:29:05;;;;;;;8.60;3.83;;;-17.40;99.90;;;;;;5084818;28;20634;-70
2022/09/25 00:31:31;;;;;;;14.63;4.23;;;-20.80;99.90;;;;;;5081172;28;20642;-73
2022/09/25 00:34:00;;;;;;;7.10;3.70;;;-22.70;99.90;;;;;;5081914;28;20197;-70
2022/09/25 00:36:26;;;;;;;8.10;3.73;;;-23.60;99.90;;;;;;5078261;28;20217;-69
2022/09/25 00:38:53;;;;;;;7.90;3.13;;;-21.90;99.90;;;;;;5079913;28;20309;-70
2022/09/25 00:41:20;;;;;;;9.63;3.20;;;-22.20;99.90;;;;;;5079829;28;20220;-71
2022/09/25 00:43:54;;;;;;;8.53;3.20;;;-20.20;99.90;;;;;;5081302;28;20183;-73
2022/09/25 00:46:34;;;;;;;8.23;3.77;;;-22.40;99.90;;;;;;5076809;28;20174;-70
2022/09/25 00:49:11;;;;;;;9.70;3.27;;;-22.80;99.90;;;;;;5077968;28;20270;-71
2022/09/25 00:51:49;;;;;;;10.17;3.13;;;-23.80;99.90;;;;;;5079355;28;20190;-72
2022/09/25 00:54:18;;;;;;;6.60;3.33;;;-21.30;99.90;;;;;;5082679;28;20196;-71
2022/09/25 00:56:48;;;;;;;15.40;4.17;;;-21.30;99.90;;;;;;5080099;28;20252;-70
2022/09/25 00:59:19;;;;;;;10.57;3.40;;;-24.50;99.90;;;;;;5083419;28;20659;-69
2022/09/25 01:01:46;;;;;;;8.67;3.10;;;-22.10;99.90;;;;;;5084344;28;20183;-73
2022/09/25 01:04:12;;;;;;;18.47;5.07;;;-23.00;99.90;;;;;;5083895;28;20312;-73
2022/09/25 01:06:38;;;;;;;11.90;5.13;;;-21.70;99.90;;;;;;5084161;28;20231;-71
2022/09/25 01:09:04;;;;;;;10.07;3.70;;;-24.60;99.90;;;;;;5083294;28;20491;-70
2022/09/25 01:11:30;;;;;;;5.67;3.20;;;-20.10;99.90;;;;;;5077461;28;20491;-71
2022/09/25 01:13:59;;;;;;;11.97;3.57;;;-19.70;99.90;;;;;;5080893;28;20316;-74
2022/09/25 01:16:56;;;;;;;8.30;3.60;;;-21.00;99.90;;;;;;5077339;28;20179;-69
2022/09/25 01:19:37;;;;;;;5.73;2.33;;;-23.30;99.90;;;;;;5087424;28;20207;-70
2022/09/25 01:22:21;;;;;;;6.90;2.87;;;-22.50;99.90;;;;;;5083033;28;20186;-70
2022/09/25 01:25:05;;;;;;;15.43;4.00;;;-23.30;99.90;;;;;;5083363;28;20232;-70
2022/09/25 01:27:53;;;;;;;14.20;4.30;;;-23.70;99.90;;;;;;5082636;28;20204;-71
2022/09/25 01:30:20;;;;;;;14.23;3.30;;;-19.20;99.90;;;;;;5077114;28;20577;-71
2022/09/25 01:33:31;;;;;;;8.67;3.70;;;-21.40;99.90;;;;;;5077059;28;20234;-70
2022/09/25 01:36:08;;;;;;;10.80;3.83;;;-21.20;99.90;;;;;;5077321;28;20267;-76
2022/09/25 01:38:42;;;;;;;14.10;3.73;;;-19.30;99.90;;;;;;5076801;28;20600;-72
2022/09/25 01:41:26;;;;;;;8.43;2.90;;;-20.90;99.90;;;;;;5077220;28;20250;-69
2022/09/25 01:44:06;;;;;;;7.37;4.07;;;-22.50;99.90;;;;;;5084709;28;20176;-69
2022/09/25 01:46:39;;;;;;;7.17;3.23;;;-18.70;99.90;;;;;;5083891;28;20179;-70
2022/09/25 01:49:16;;;;;;;9.00;4.00;;;-18.40;99.90;;;;;;5083608;28;20182;-71
2022/09/25 01:51:48;;;;;;;7.60;2.77;;;-20.20;99.90;;;;;;5084614;28;20178;-70
2022/09/25 01:54:19;;;;;;;14.60;3.13;;;-23.60;99.90;;;;;;5077092;28;20577;-71
2022/09/25 01:57:02;;;;;;;10.97;3.23;;;-22.00;99.90;;;;;;5076421;28;20179;-72
2022/09/25 01:59:36;;;;;;;5.40;2.50;;;-21.70;99.90;;;;;;5079963;28;20217;-69
2022/09/25 02:02:07;;;;;;;5.00;2.17;;;-24.80;99.90;;;;;;5081443;28;20598;-70
2022/09/25 02:04:43;;;;;;;3.30;2.37;;;-24.40;99.90;;;;;;5079600;28;20305;-70
2022/09/25 02:07:15;;;;;;;13.37;2.57;;;-21.80;99.90;;;;;;5080533;28;20570;-72
2022/09/25 02:09:49;;;;;;;11.90;3.43;;;-21.90;99.90;;;;;;5083183;28;20531;-76
2022/09/25 02:12:22;;;;;;;12.23;2.80;;;-22.00;99.90;;;;;;5076168;28;20183;-68
2022/09/25 02:14:53;;;;;;;8.67;2.73;;;-24.20;99.90;;;;;;5081201;28;20183;-71
2022/09/25 02:23:18;;;;;;;14.13;3.47;;;-20.00;99.90;;;;;;5082154;28;20190;-71
2022/09/25 02:25:51;;;;;;;6.43;2.70;;;-19.90;99.90;;;;;;5068466;28;20187;-68
2022/09/25 02:28:17;;;;;;;8.33;2.57;;;-23.40;99.90;;;;;;5076034;28;20240;-69
2022/09/25 02:30:45;;;;;;;8.20;3.23;;;-21.30;99.90;;;;;;5079518;28;20237;-69
2022/09/25 02:33:10;;;;;;;10.37;2.90;;;-20.20;99.90;;;;;;5077576;28;20666;-70
2022/09/25 02:35:37;;;;;;;6.93;2.93;;;-20.90;99.90;;;;;;5081839;28;20270;-68
2022/09/25 02:38:04;;;;;;;8.53;2.77;;;-21.10;99.90;;;;;;5075759;28;20218;-71
2022/09/25 02:40:43;;;;;;;10.33;2.57;;;-20.00;99.90;;;;;;5075611;28;20240;-69
2022/09/25 02:43:33;;;;;;;10.43;4.10;;;-18.60;99.90;;;;;;5082393;28;20266;-69
2022/09/25 02:46:12;;;;;;;12.33;4.40;;;-23.80;99.90;;;;;;5075491;28;20583;-73
2022/09/25 02:48:52;;;;;;;7.03;2.70;;;-20.60;99.90;;;;;;5081925;28;20253;-69
2022/09/25 02:51:35;;;;;;;14.53;3.83;;;-21.60;99.90;;;;;;5082138;28;20269;-72
2022/09/25 02:54:19;;;;;;;15.40;3.13;;;-19.90;99.90;;;;;;5083158;28;20214;-70
2022/09/25 02:56:48;;;;;;;5.43;2.30;;;-23.80;99.90;;;;;;5081377;28;20197;-74
2022/09/25 02:59:22;;;;;;;22.60;4.17;;;-22.70;99.90;;;;;;5075391;28;20512;-68
2022/09/25 03:01:48;;;;;;;6.40;3.03;;;-21.50;99.90;;;;;;5084096;28;20271;-68
2022/09/25 03:04:16;;;;;;;7.27;3.40;;;-25.70;99.90;;;;;;5076568;28;20210;-69
2022/09/25 03:06:43;;;;;;;10.03;3.47;;;-28.50;99.90;;;;;;5079571;28;20183;-75
2022/09/25 03:09:10;;;;;;;9.83;3.27;;;-21.50;99.90;;;;;;5082259;28;20185;-71
2022/09/25 03:11:41;;;;;;;7.93;2.97;;;-23.60;99.90;;;;;;5079836;28;20541;-69
2022/09/25 03:14:07;;;;;;;11.07;2.37;;;-25.00;99.90;;;;;;5078794;28;20194;-70
2022/09/25 03:16:35;;;;;;;6.27;3.30;;;-22.00;99.90;;;;;;5075362;28;20266;-68
2022/09/25 03:19:02;;;;;;;15.73;3.87;;;-21.90;99.90;;;;;;5075070;28;20277;-69
2022/09/25 03:21:27;;;;;;;8.33;2.90;;;-22.50;99.90;;;;;;5075361;28;20210;-70
2022/09/25 03:23:55;;;;;;;4.60;2.50;;;-22.40;99.90;;;;;;5075007;28;20263;-67
2022/09/25 03:26:23;;;;;;;7.60;2.87;;;-22.20;99.90;;;;;;5075337;28;20175;-70
2022/09/25 03:28:49;;;;;;;4.53;2.70;;;-28.00;99.90;;;;;;5075252;28;20183;-71
2022/09/25 03:31:15;;;;;;;8.30;3.07;;;-26.20;99.90;;;;;;5081734;28;20194;-70
2022/09/25 03:33:42;;;;;;;10.10;2.90;;;-23.20;99.90;;;;;;5083819;28;20459;-68
2022/09/25 03:36:18;;;;;;;12.50;3.83;;;-27.00;99.90;;;;;;5079566;28;20235;-70
2022/09/25 03:38:45;;;;;;;12.40;2.60;;;-26.30;99.90;;;;;;5080089;28;20240;-71
2022/09/25 03:41:12;;;;;;;18.73;3.60;;;-25.80;99.90;;;;;;5080714;28;20171;-69
2022/09/25 03:43:39;;;;;;;7.37;2.57;;;-20.20;99.90;;;;;;5075054;28;20472;-73
2022/09/25 03:46:08;;;;;;;9.27;3.13;;;-22.80;99.90;;;;;;5077249;28;20262;-68
2022/09/25 03:48:35;;;;;;;7.93;3.97;;;-24.00;99.90;;;;;;5078962;28;20190;-71
2022/09/25 03:51:01;;;;;;;4.43;3.30;;;-21.30;99.90;;;;;;5082610;28;20179;-68
2022/09/25 03:53:30;;;;;;;8.80;2.93;;;-22.90;99.90;;;;;;5079883;28;20252;-74
2022/09/25 03:55:56;;;;;;;6.10;3.20;;;-25.80;99.90;;;;;;5078481;28;20241;-72
2022/09/25 03:58:22;;;;;;;7.80;2.40;;;-24.70;99.90;;;;;;5078241;28;20213;-69
2022/09/25 04:00:48;;;;;;;9.07;3.27;;;-27.10;99.90;;;;;;5078623;28;20204;-71
2022/09/25 04:03:14;;;;;;;6.23;2.97;;;-24.80;99.90;;;;;;5083543;28;20190;-70
2022/09/25 04:05:42;;;;;;;7.57;3.10;;;-22.90;99.90;;;;;;5078538;28;20232;-70
2022/09/25 04:08:09;;;;;;;4.67;2.40;;;-25.50;99.90;;;;;;5087909;28;20198;-69
2022/09/25 04:10:37;;;;;;;14.07;3.47;;;-24.70;99.90;;;;;;5081770;28;20190;-70
2022/09/25 04:13:11;;;;;;;6.17;3.00;;;-27.80;99.90;;;;;;5079228;28;20560;-67
2022/09/25 04:15:41;;;;;;;6.10;2.67;;;-28.20;99.90;;;;;;5082687;28;20190;-68
2022/09/25 04:18:08;;;;;;;5.63;2.70;;;-25.30;99.90;;;;;;5081607;28;20263;-71
2022/09/25 04:20:34;;;;;;;5.17;2.93;;;-23.60;99.90;;;;;;5082511;28;20183;-68
2022/09/25 04:23:00;;;;;;;4.40;2.97;;;-29.60;99.90;;;;;;5086956;28;20189;-68
2022/09/25 04:25:26;;;;;;;6.90;3.10;;;-28.50;99.90;;;;;;5082187;28;20238;-70
2022/09/25 04:27:55;;;;;;;8.73;3.73;;;-33.50;99.90;;;;;;5078557;28;20266;-70
2022/09/25 04:30:26;;;;;;;9.93;3.00;;;-35.20;99.90;;;;;;5078341;28;20182;-68
2022/09/25 04:35:37;;;;;;;12.00;4.27;;;-27.40;99.90;;;;;;5084065;28;20229;-70
2022/09/25 04:38:03;;;;;;;6.53;3.17;;;-30.20;99.90;;;;;;5083925;28;20230;-69
2022/09/25 04:40:29;;;;;;;7.97;3.33;;;-29.40;99.90;;;;;;5082517;28;20265;-69
2022/09/25 04:42:56;;;;;;;11.57;4.07;;;-37.10;99.90;;;;;;5088082;28;20562;-69
2022/09/25 04:45:25;;;;;;;6.53;4.03;;;-35.50;99.90;;;;;;5084153;28;20243;-72
2022/09/25 04:47:54;;;;;;;15.53;4.63;;;-33.20;99.90;;;;;;5083268;28;20186;-70
2022/09/25 04:50:21;;;;;;;6.03;4.10;;;-37.30;99.90;;;;;;5078064;28;20197;-73
2022/09/25 04:52:48;;;;;;;3.70;2.97;;;-35.40;99.90;;;;;;5081995;28;20217;-73
2022/09/25 04:55:15;;;;;;;3.70;3.40;;;-34.30;99.90;;;;;;5079899;28;20179;-69
2022/09/25 04:57:41;;;;;;;10.00;3.97;;;-32.90;99.90;;;;;;5082381;28;20241;-69
2022/09/25 05:00:08;;;;;;;12.03;3.97;;;-33.70;99.90;;;;;;5081307;28;20568;-72
2022/09/25 05:02:33;;;;;;;10.17;3.93;;;-36.00;99.90;;;;;;5080573;28;20217;-74
2022/09/25 05:04:59;;;;;;;6.03;4.23;;;-40.00;99.90;;;;;;5083262;28;20594;-73
2022/09/25 05:07:25;;;;;;;6.07;4.03;;;-34.40;99.90;;;;;;5081733;28;20190;-72
2022/09/25 05:09:50;;;;;;;16.50;5.00;;;-37.80;99.90;;;;;;5077656;28;20191;-73
2022/09/25 05:12:16;;;;;;;11.03;4.67;;;-37.90;99.90;;;;;;5077538;28;20190;-70
2022/09/25 05:14:42;;;;;;;4.30;3.97;;;-40.00;99.90;;;;;;5077558;28;20188;-73
2022/09/25 05:17:10;;;;;;;11.90;3.53;;;-40.00;99.90;;;;;;5077531;28;20187;-71
2022/09/25 05:19:36;;;;;;;4.20;3.37;;;-36.30;99.90;;;;;;5077624;28;20298;-70
2022/09/25 05:22:02;;;;;;;10.60;4.27;;;-40.00;99.90;;;;;;5079552;28;20569;-74
2022/09/25 05:24:30;;;;;;;9.83;4.10;;;-40.00;99.90;;;;;;5087033;28;20183;-71
2022/09/25 05:26:56;;;;;;;5.67;3.90;;;-40.00;99.90;;;;;;5082279;28;20625;-71
2022/09/25 05:29:22;;;;;;;8.90;4.37;;;-40.00;99.90;;;;;;5087778;28;20674;-73
2022/09/25 05:31:48;;;;;;;10.97;4.37;;;-40.00;99.90;;;;;;5081327;28;20195;-75
2022/09/25 05:34:15;;;;;;;8.33;4.73;;;-40.00;99.90;;;;;;5077259;28;20206;-72
2022/09/25 05:36:41;;;;;;;5.77;3.60;;;-40.00;99.90;;;;;;5078192;28;20608;-70
2022/09/25 05:39:09;;;;;;;5.73;4.03;;;-40.00;99.90;;;;;;5081860;28;20205;-73
2022/09/25 05:41:35;;;;;;;4.17;3.83;;;-40.00;99.90;;;;;;5087240;28;20284;-70
2022/09/25 05:44:08;;;;;;;6.20;3.97;;;-40.00;99.90;;;;;;5083527;28;20258;-75
2022/09/25 05:46:34;;;;;;;5.80;3.80;;;-40.00;99.90;;;;;;5084546;28;20265;-70
2022/09/25 05:49:00;;;;;;;11.30;4.17;;;-40.00;99.90;;;;;;5077255;28;20471;-73
2022/09/25 05:51:27;;;;;;;6.00;3.33;;;-40.00;99.90;;;;;;5076984;28;20182;-71
2022/09/25 05:53:54;;;;;;;8.17;4.23;;;-40.00;99.90;;;;;;5080897;28;20195;-71
2022/09/25 05:56:21;;;;;;;7.27;3.77;;;-40.00;99.90;;;;;;5079255;28;20291;-71
2022/09/25 05:58:48;;;;;;;6.17;4.80;;;-40.00;99.90;;;;;;5083038;28;20263;-75
2022/09/25 06:01:14;;;;;;;7.57;3.97;;;-40.00;99.90;;;;;;5082658;28;20208;-69
2022/09/25 06:03:39;;;;;;;4.97;4.43;;;-40.00;99.90;;;;;;5076306;28;20929;-70
2022/09/25 06:06:05;;;;;;;4.47;3.67;;;-40.00;99.90;;;;;;5076629;28;20208;-69
2022/09/25 06:08:33;;;;;;;7.00;3.87;;;-40.00;99.90;;;;;;5080444;28;20183;-71
2022/09/25 06:11:01;;;;;;;16.37;5.07;;;-40.00;99.90;;;;;;5076618;28;20178;-76
2022/09/25 06:13:28;;;;;;;6.07;4.67;;;-40.00;99.90;;;;;;5079743;28;20194;-69
2022/09/25 06:15:53;;;;;;;5.30;3.73;;;-40.00;99.90;;;;;;5083569;28;20186;-70
2022/09/25 06:18:21;;;;;;;5.90;4.30;;;-40.00;99.90;;;;;;5076040;28;20205;-72
2022/09/25 06:20:47;;;;;;;5.57;5.07;;;-40.00;99.90;;;;;;5075930;28;20187;-70
2022/09/25 06:23:14;;;;;;;9.70;4.57;;;-40.00;99.90;;;;;;5083479;28;20181;-71
2022/09/25 06:25:40;;;;;;;4.17;3.27;;;-40.00;99.90;;;;;;5081755;28;20178;-70
2022/09/25 06:28:06;;;;;;;9.93;6.30;;;-40.00;99.90;;;;;;5075985;28;20187;-72
2022/09/25 06:30:34;;;;;;;7.83;4.73;;;-40.00;99.90;;;;;;5082732;28;20197;-70
2022/09/25 06:33:00;;;;;;;4.77;4.07;;;-40.00;99.90;;;;;;5085736;28;20314;-72
2022/09/25 06:35:30;;;;;;;6.57;4.10;;;-40.00;99.90;;;;;;5082330;28;20178;-70
2022/09/25 06:37:58;;;;;;;7.83;4.17;;;-40.00;99.90;;;;;;5078955;28;20257;-76
2022/09/25 06:40:27;;;;;;;5.07;4.67;;;-40.00;99.90;;;;;;5076015;28;20182;-71
2022/09/25 06:42:58;;;;;;;4.70;4.30;;;-40.00;99.90;;;;;;5082380;28;20192;-68
2022/09/25 06:45:25;;;;;;;7.53;4.67;;;-40.00;99.90;;;;;;5075066;28;20237;-69
2022/09/25 06:47:56;;;;;;;6.17;4.43;;;-40.00;99.90;;;;;;5079410;28;20587;-68
2022/09/25 06:50:28;;;;;;;4.67;4.27;;;-40.00;99.90;;;;;;5079602;28;20262;-68
2022/09/25 06:52:54;;;;;;;6.90;4.23;;;-40.00;99.90;;;;;;5082729;28;20284;-68
2022/09/25 06:55:20;;;;;;;4.97;4.50;;;-40.00;99.90;;;;;;5082481;28;20657;-68
2022/09/25 06:57:45;;;;;;;7.40;4.47;;;-40.00;99.90;;;;;;5075620;28;20182;-70
2022/09/25 07:00:12;;;;;;;6.13;4.83;;;-40.00;99.90;;;;;;5074874;28;20209;-68
2022/09/25 07:05:22;;;;;;;4.70;4.30;;;-40.00;99.90;;;;;;5075441;28;20251;-68
2022/09/25 07:07:47;;;;;;;10.23;6.40;;;-40.00;99.90;;;;;;5078853;28;20270;-72
2022/09/25 07:10:13;;;;;;;6.93;5.10;;;-40.00;99.90;;;;;;5082161;28;20213;-75
2022/09/25 07:12:40;;;;;;;10.10;5.27;;;-40.00;99.90;;;;;;5079340;28;20210;-69
2022/09/25 07:15:06;;;;;;;5.83;5.23;;;-40.00;99.90;;;;;;5083324;28;20178;-71
2022/09/25 07:17:32;;;;;;;8.43;5.17;;;-40.00;99.90;;;;;;5077039;28;20183;-68
2022/09/25 07:19:57;;;;;;;6.33;5.40;;;-40.00;99.90;;;;;;5075036;28;20260;-73
2022/09/25 07:22:23;;;;;;;9.70;5.77;;;-40.00;99.90;;;;;;5081233;28;20267;-74
2022/09/25 07:24:49;;;;;;;10.47;5.23;;;-40.00;99.90;;;;;;5083717;28;20265;-69
2022/09/25 07:27:15;;;;;;;5.97;4.60;;;-40.00;99.90;;;;;;5082335;28;20171;-72
2022/09/25 07:29:40;;;;;;;11.07;5.20;;;-40.00;99.90;;;;;;5074460;28;20175;-68
2022/09/25 07:32:06;;;;;;;11.67;5.40;;;-40.00;99.90;;;;;;5051599;28;20275;-70
2022/09/25 07:34:35;;;;;;;7.77;6.10;;;-40.00;99.90;;;;;;5083927;28;20250;-70
2022/09/25 07:37:00;;;;;;;6.67;4.90;;;-40.00;99.90;;;;;;5084147;28;20610;-74
2022/09/25 07:39:26;;;;;;;8.03;5.77;;;-40.00;99.90;;;;;;5084365;28;20214;-73
2022/09/25 07:41:53;;;;;;;12.03;4.63;;;-40.00;99.90;;;;;;5087439;28;20285;-68
2022/09/25 07:44:19;;;;;;;8.20;5.00;;;-40.00;99.90;;;;;;5083383;28;20244;-70
2022/09/25 07:46:45;;;;;;;15.07;5.20;;;-40.00;99.90;;;;;;5085631;28;20178;-75
2022/09/25 07:49:12;;;;;;;8.10;5.43;;;-40.00;99.90;;;;;;5083741;28;20293;-69
2022/09/25 07:51:38;;;;;;;11.73;5.30;;;-40.00;99.90;;;;;;5087390;28;20274;-69
2022/09/25 07:54:04;;;;;;;7.97;4.17;;;-40.00;99.90;;;;;;5084043;28;20186;-71
2022/09/25 07:56:30;;;;;;;7.47;4.77;;;-40.00;99.90;;;;;;5086371;28;20189;-69
2022/09/25 07:58:55;;;;;;;8.07;4.37;;;-40.00;99.90;;;;;;5082657;28;20260;-70
2022/09/25 08:01:21;;;;;;;6.13;3.93;;;-40.00;99.90;;;;;;5087188;28;20241;-70
2022/09/25 08:03:47;;;;;;;4.63;3.37;;;-40.00;99.90;;;;;;5085436;28;20186;-69
2022/09/25 08:06:13;;;;;;;9.70;4.90;;;-40.00;99.90;;;;;;5080264;28;20198;-68
2022/09/25 08:08:40;;;;;;;11.50;4.20;;;-40.00;99.90;;;;;;5086941;28;20185;-74
2022/09/25 08:11:10;;;;;;;4.77;4.00;;;-40.00;99.90;;;;;;5086788;28;20209;-71
2022/09/25 08:13:37;;;;;;;10.27;3.83;;;-40.00;99.90;;;;;;5084345;28;20176;-69
2022/09/25 08:16:05;;;;;;;7.60;3.83;;;-40.00;99.90;;;;;;5087477;28;20174;-74
2022/09/25 08:18:31;;;;;;;8.73;4.37;;;-40.00;99.90;;;;;;5086885;28;20512;-72
2022/09/25 08:21:01;;;;;;;10.63;3.97;;;-40.00;99.90;;;;;;5086712;28;20175;-68
2022/09/25 08:23:27;;;;;;;10.50;3.97;;;-40.00;99.90;;;;;;5085746;28;20599;-72
2022/09/25 08:25:53;;;;;;;6.03;3.10;;;-40.00;99.90;;;;;;5087141;28;20223;-67
2022/09/25 08:28:18;;;;;;;4.67;3.47;;;-40.00;99.90;;;;;;5086064;28;20192;-68
2022/09/25 08:30:44;;;;;;;6.40;3.00;;;-40.00;99.90;;;;;;5083121;28;20187;-70
2022/09/25 08:33:11;;;;;;;5.07;3.00;;;-40.00;99.90;;;;;;5084907;28;20687;-71
2022/09/25 08:35:39;;;;;;;4.97;2.70;;;-40.00;99.90;;;;;;5086377;28;20671;-77
2022/09/25 08:38:10;;;;;;;5.83;3.43;;;-40.00;99.90;;;;;;5084535;28;20195;-69
2022/09/25 08:40:43;;;;;;;11.50;2.37;;;-40.00;99.90;;;;;;5082030;28;20175;-68
2022/09/25 08:43:17;;;;;;;5.90;2.20;;;-40.00;99.90;;;;;;5075958;28;20194;-68
2022/09/25 08:49:01;;;;;;;6.70;2.40;;;-40.00;99.90;;;;;;5077800;28;20243;-66
2022/09/25 08:51:36;;;;;;;5.40;3.03;;;-40.00;99.90;;;;;;5082624;28;21909;-65
2022/09/25 08:54:03;;;;;;;8.93;3.20;;;-40.00;99.90;;;;;;5081559;28;20214;-65
2022/09/25 08:56:31;;;;;;;9.23;2.10;;;-40.00;99.90;;;;;;5077599;28;20182;-67
2022/09/25 08:59:00;;;;;;;7.40;1.70;;;-40.00;99.90;;;;;;5089572;28;20230;-65
2022/09/25 09:01:42;;;;;;;3.27;1.73;;;-40.00;99.90;;;;;;5089218;28;20186;-65
2022/09/25 09:04:31;;;;;;;4.77;2.10;;;-40.00;99.90;;;;;;5077855;28;20185;-65
2022/09/25 09:07:33;;;;;;;2.17;1.23;;;-40.00;99.90;;;;;;5082660;28;20178;-65
2022/09/25 09:10:24;;;;;;;3.00;1.40;;;-40.00;99.90;;;;;;5070626;28;20214;-65
2022/09/25 09:13:15;;;;;;;4.23;2.33;;;-40.00;99.90;;;;;;5088687;28;20183;-66
2022/09/25 09:15:52;;;;;;;6.90;1.93;;;-40.00;99.90;;;;;;5071801;28;20191;-65
2022/09/25 09:18:28;;;;;;;4.00;1.73;;;-40.00;99.90;;;;;;5079324;28;20461;-76
2022/09/25 09:20:56;;;;;;;5.50;1.70;;;-40.00;99.90;;;;;;5077733;28;20182;-78
2022/09/25 09:23:29;;;;;;;4.67;1.23;;;-40.00;99.90;;;;;;5082467;28;20175;-67
2022/09/25 09:26:04;;;;;;;4.60;1.53;;;-40.00;99.90;;;;;;5078389;28;20600;-66
2022/09/25 09:28:49;;;;;;;4.97;1.00;;;-40.00;99.90;;;;;;5080998;28;20215;-70
2022/09/25 09:31:32;;;;;;;8.40;1.43;;;-40.00;99.90;;;;;;5083549;28;20208;-70
2022/09/25 09:33:58;;;;;;;5.03;1.60;;;-40.00;99.90;;;;;;5077744;28;20213;-69
2022/09/25 09:36:45;;;;;;;2.47;1.00;;;-40.00;99.90;;;;;;5080691;28;20594;-69
2022/09/25 09:39:44;;;;;;;5.37;1.10;;;-40.00;99.90;;;;;;5080469;28;20202;-65
2022/09/25 09:42:13;;;;;;;2.83;2.13;;;-40.00;99.90;;;;;;5082937;28;20194;-64
2022/09/25 09:44:50;;;;;;;3.57;1.40;;;-40.00;99.90;;;;;;5080614;28;20225;-64
2022/09/25 09:47:49;;;;;;;3.73;1.50;;;-40.00;99.90;;;;;;5086817;28;20186;-64
2022/09/25 09:50:22;;;;;;;3.40;1.23;;;-40.00;99.90;;;;;;5080716;28;20174;-65
2022/09/25 09:52:54;;;;;;;5.40;1.77;;;-40.00;99.90;;;;;;5076603;28;20210;-64
2022/09/25 09:55:19;;;;;;;7.93;1.93;;;-40.00;99.90;;;;;;5079771;28;20233;-66
2022/09/25 09:57:51;;;;;;;4.67;1.23;;;-40.00;99.90;;;;;;5076662;28;20183;-64
2022/09/25 10:00:19;;;;;;;2.70;0.97;;;-40.00;99.90;;;;;;5081796;28;20221;-68
2022/09/25 10:02:59;;;;;;;3.63;1.30;;;-40.00;99.90;;;;;;5081215;28;20179;-65
2022/09/25 10:05:24;;;;;;;4.40;1.20;;;-40.00;99.90;;;;;;5083384;28;20179;-64
2022/09/25 10:07:51;;;;;;;5.90;1.37;;;-40.00;99.90;;;;;;5083374;28;20613;-67
2022/09/25 10:10:18;;;;;;;4.90;1.27;;;-40.00;99.90;;;;;;5076743;28;20175;-68
2022/09/25 10:12:49;;;;;;;1.27;1.10;;;-40.00;99.90;;;;;;5077286;28;20199;-66
2022/09/25 10:15:34;;;;;;;3.17;1.37;;;-40.00;99.90;;;;;;5076587;28;20183;-64
2022/09/25 10:18:01;;;;;;;3.37;0.90;;;-40.00;99.90;;;;;;5076454;28;20194;-64
2022/09/25 10:20:40;;;;;;;1.73;0.80;;;-40.00;99.90;;;;;;5076316;28;20183;-69
2022/09/25 10:23:32;;;;;;;2.03;1.20;;;-40.00;99.90;;;;;;5078254;28;20179;-65
2022/09/25 10:25:58;;;;;;;6.73;1.57;;;-40.00;99.90;;;;;;5073109;28;20225;-65
2022/09/25 10:28:34;;;;;;;4.27;1.13;;;-40.00;99.90;;;;;;5083474;28;20203;-66
2022/09/25 10:31:02;;;;;;;3.67;1.53;;;-40.00;99.90;;;;;;5084965;28;20608;-65
2022/09/25 10:33:31;;;;;;;1.53;0.80;;;-40.00;99.90;;;;;;5080462;28;20178;-66
2022/09/25 10:35:57;;;;;;;6.63;1.57;;;-40.00;99.90;;;;;;5075984;28;20187;-69
2022/09/25 10:38:37;;;;;;;2.20;0.83;;;-40.00;99.90;;;;;;5081819;28;20202;-64
2022/09/25 10:41:16;;;;;;;3.07;1.07;;;-40.00;99.90;;;;;;5080183;28;20269;-65
2022/09/25 10:43:51;;;;;;;3.30;1.17;;;-40.00;99.90;;;;;;5083040;28;20571;-64
2022/09/25 10:52:07;;;;;;;3.10;1.30;;;-40.00;99.90;;;;;;5075728;28;20284;-64
2022/09/25 10:54:34;;;;;;;1.40;1.30;;;-40.00;99.90;;;;;;5080952;28;20578;-66
2022/09/25 10:57:12;;;;;;;1.80;0.90;;;-40.00;99.90;;;;;;5075146;28;20183;-65
2022/09/25 10:59:39;;;;;;;3.40;1.13;;;-40.00;99.90;;;;;;5081056;28;20203;-65
2022/09/25 11:02:19;;;;;;;5.13;1.47;;;-40.00;99.90;;;;;;5082782;28;20179;-65
2022/09/25 11:04:46;;;;;;;5.23;1.63;;;-40.00;99.90;;;;;;5075492;28;20477;-64
2022/09/25 11:07:26;;;;;;;4.33;1.80;;;-40.00;98.80;;;;;;5075314;28;20210;-65
2022/09/25 11:09:52;;;;;;;1.23;0.77;;;-40.00;98.40;;;;;;5082606;28;20174;-65
2022/09/25 11:12:24;;;;;;;3.83;1.27;;;-40.00;99.00;;;;;;5074521;28;20222;-66
2022/09/25 11:14:57;;;;;;;2.60;1.10;;;-40.00;97.80;;;;;;5080436;28;20214;-65
2022/09/25 11:17:33;;;;;;;4.60;2.00;;;-40.00;98.00;;;;;;5081762;28;20187;-65
2022/09/25 11:20:29;;;;;;;3.17;1.20;;;-40.00;98.10;;;;;;5075329;28;20202;-65
2022/09/25 11:23:02;;;;;;;2.97;1.43;;;-40.00;97.50;;;;;;5073409;28;20210;-65
2022/09/25 11:25:46;;;;;;;4.37;1.70;;;-40.00;97.90;;;;;;5081052;28;20198;-66
2022/09/25 11:28:17;;;;;;;2.43;1.73;;;-40.00;99.30;;;;;;5075176;28;20195;-65
2022/09/25 11:30:56;;;;;;;2.77;1.60;;;-40.00;99.90;;;;;;5081463;28;20171;-67
2022/09/25 11:33:41;;;;;;;4.27;2.20;;;-40.00;99.90;;;;;;5084378;28;20224;-72
2022/09/25 11:36:23;;;;;;;3.23;1.73;;;-40.00;99.90;;;;;;5082740;28;20171;-66
2022/09/25 11:42:04;;;;;;;3.00;1.60;;;-40.00;95.30;;;;;;5075413;28;20241;-66
2022/09/25 11:44:56;;;;;;;8.73;4.60;;;-40.00;95.30;;;;;;5081086;28;20171;-66
2022/09/25 11:47:37;;;;;;;2.77;1.53;;;-40.00;99.90;;;;;;5078689;28;20259;-70
2022/09/25 11:50:06;;;;;;;8.17;4.70;;;-40.00;97.80;;;;;;5079473;28;20182;-65
2022/09/25 11:52:43;;;;;;;9.23;7.17;;;-40.00;96.60;;;;;;5077754;28;20202;-70
2022/09/25 11:55:27;;;;;;;4.43;1.60;;;-40.00;97.70;;;;;;5081988;28;20179;-70
2022/09/25 11:58:04;;;;;;;2.97;1.23;;;-40.00;91.70;;;;;;5075019;28;20186;-65
2022/09/25 12:00:45;;;;;;;2.50;1.40;;;-40.00;87.20;;;;;;5074529;28;20206;-67
2022/09/25 12:03:14;;;;;;;2.90;1.40;;;-40.00;88.50;;;;;;5074858;28;20179;-65
2022/09/25 12:05:48;;;;;;;2.67;1.63;;;-40.00;84.70;;;;;;5074926;28;20172;-66
2022/09/25 12:08:23;;;;;;;3.93;1.93;;;-40.00;84.70;;;;;;5075357;28;20186;-66
2022/09/25 12:11:03;;;;;;;4.03;1.63;;;-40.00;83.50;;;;;;5078584;28;20189;-72
2022/09/25 12:14:02;;;;;;;2.73;1.13;;;-40.00;82.50;;;;;;5082478;28;20205;-66
2022/09/25 12:17:01;;;;;;;2.93;1.30;;;-40.00;86.30;;;;;;5061828;28;20199;-73
2022/09/25 12:19:45;;;;;;;5.40;1.77;;;-40.00;85.60;;;;;;5092893;28;20202;-70
2022/09/25 12:22:11;;;;;;;3.23;1.90;;;-40.00;87.00;;;;;;5080379;28;20542;-65
2022/09/25 12:24:52;;;;;;;1.60;0.80;;;-40.00;81.20;;;;;;5078381;28;20262;-66
2022/09/25 12:27:47;;;;;;;0.73;0.73;;;-40.00;77.70;;;;;;5082067;28;20179;-67
2022/09/25 12:30:20;;;;;;;3.03;1.10;;;-40.00;76.10;;;;;;5084505;28;20179;-67
2022/09/25 12:32:52;;;;;;;2.33;1.00;;;-40.00;72.10;;;;;;5084067;28;20281;-69
2022/09/25 12:35:39;;;;;;;4.40;1.00;;;-40.00;68.20;;;;;;5086573;28;20219;-66
2022/09/25 12:38:11;;;;;;;1.13;0.90;;;-40.00;65.50;;;;;;5078301;28;20207;-67
2022/09/25 12:41:05;;;;;;;2.43;0.77;;;-40.00;70.10;;;;;;5078128;28;20176;-65
2022/09/25 12:43:44;;;;;;;4.37;0.70;;;-40.00;73.00;;;;;;5072416;28;20183;-64
2022/09/25 12:46:36;;;;;;;8.27;2.13;;;-40.00;76.10;;;;;;5082800;28;20171;-75
2022/09/25 12:49:14;;;;;;;2.07;1.23;;;-40.00;75.20;;;;;;5081365;28;20182;-65
2022/09/25 12:51:45;;;;;;;3.00;0.80;;;-40.00;77.80;;;;;;5077630;28;20223;-65
2022/09/25 12:54:32;;;;;;;2.63;1.00;;;-40.00;82.30;;;;;;5082955;28;20643;-66
2022/09/25 12:57:18;;;;;;;3.17;0.93;;;-40.00;76.30;;;;;;5083383;28;20179;-73
2022/09/25 12:59:57;;;;;;;0.57;0.50;;;-40.00;68.80;;;;;;5077305;28;20199;-65
2022/09/25 13:02:43;;;;;;;2.00;0.50;;;-40.00;66.50;;;;;;5082923;28;20175;-66
2022/09/25 13:05:17;;;;;;;1.23;0.63;;;-40.00;64.10;;;;;;5077402;28;20174;-65
2022/09/25 13:08:06;;;;;;;2.87;0.57;;;-40.00;66.20;;;;;;5077602;28;20251;-65
2022/09/25 13:10:49;;;;;;;0.80;0.60;;;-40.00;71.00;;;;;;5082584;28;20531;-72
2022/09/25 13:13:19;;;;;;;0.70;0.50;;;-40.00;66.70;;;;;;5082892;28;20186;-66
2022/09/25 13:15:51;;;;;;;2.10;1.30;;;-40.00;68.00;;;;;;5077556;28;20203;-70
2022/09/25 13:18:20;;;;;;;2.77;0.93;;;-40.00;72.90;;;;;;5082343;28;20676;-73
2022/09/25 13:21:21;;;;;;;1.20;0.77;;;-27.50;84.60;;;;;;5082770;28;20185;-66
2022/09/25 13:23:50;;;;;;;1.63;0.90;;;19.10;99.90;;;;;;5066427;28;20199;-65
2022/09/25 13:26:17;;;;;;;10.60;5.23;;;-40.00;86.90;;;;;;5081784;28;20575;-72